Time;durP1;ratioP1;P1;durP2;ratioP2;P2;SDS_P1;SDS_P2;PMS_P1;PMS_P2;Temp;Humidity;BMP_temperature;BMP_pressure;BME280_temperature;BME280_humidity;BME280_pressure;Samples;Min_cycle;Max_cycle;Signal;HPM_P1;HPM_P2
2023/11/12 00:00:56;;;;;;;6.78;2.13;;;205.20;2252.80;;;;;;5033518;28;20032;-77
2023/11/12 00:03:22;;;;;;;4.80;1.90;;;205.20;2252.80;;;;;;5023029;28;20423;-77
2023/11/12 00:05:50;;;;;;;;;;;205.20;2252.80;;;;;;5031996;28;20047;-77
2023/11/12 00:08:18;;;;;;;3.45;1.70;;;205.10;2252.80;;;;;;5051695;28;20318;-77
2023/11/12 00:10:44;;;;;;;4.60;2.10;;;205.10;2252.80;;;;;;5044770;28;20113;-76
2023/11/12 00:13:10;;;;;;;5.43;1.88;;;205.60;2252.80;;;;;;5043847;28;20075;-77
2023/11/12 00:15:35;;;;;;;3.83;1.63;;;205.10;2252.80;;;;;;5026563;28;20060;-77
2023/11/12 00:18:01;;;;;;;3.50;1.88;;;205.10;2252.80;;;;;;5020373;28;20129;-77
2023/11/12 00:20:28;;;;;;;;;;;205.10;2252.80;;;;;;5020505;28;20092;-77
2023/11/12 00:22:54;;;;;;;3.20;1.63;;;205.10;2252.80;;;;;;5032863;28;20351;-77
2023/11/12 00:25:20;;;;;;;3.15;1.67;;;205.00;2252.80;;;;;;5018370;28;20833;-77
2023/11/12 00:27:46;;;;;;;;;;;205.00;2252.80;;;;;;5023473;28;20044;-79
2023/11/12 00:30:13;;;;;;;4.45;1.95;;;205.00;2252.80;;;;;;5027541;28;19912;-77
2023/11/12 00:32:38;;;;;;;3.35;1.90;;;205.00;2252.80;;;;;;5032247;28;20407;-77
2023/11/12 00:35:05;;;;;;;4.03;1.90;;;205.00;2252.80;;;;;;5032905;28;20026;-77
2023/11/12 00:37:30;;;;;;;4.13;2.17;;;205.00;2252.80;;;;;;5029265;28;20120;-77
2023/11/12 00:39:56;;;;;;;4.18;1.90;;;205.00;2252.80;;;;;;5013164;28;20189;-77
2023/11/12 00:42:22;;;;;;;3.92;1.80;;;205.00;2252.80;;;;;;5013420;28;20038;-77
2023/11/12 00:44:47;;;;;;;6.03;2.40;;;205.00;2252.80;;;;;;5028776;28;20380;-77
2023/11/12 00:47:14;;;;;;;6.10;2.67;;;205.00;2252.80;;;;;;5016101;28;20037;-77
2023/11/12 00:49:39;;;;;;;5.20;2.47;;;205.00;2252.80;;;;;;5028241;28;20041;-77
2023/11/12 00:52:05;;;;;;;3.45;2.20;;;205.00;2252.80;;;;;;5033859;28;20387;-77
2023/11/12 00:54:32;;;;;;;3.35;2.00;;;205.00;2252.80;;;;;;5028469;28;20072;-78
2023/11/12 00:56:58;;;;;;;3.33;1.85;;;205.00;2252.80;;;;;;5022092;28;20021;-78
2023/11/12 00:59:24;;;;;;;5.07;2.30;;;205.00;2252.80;;;;;;5015736;28;21516;-77
2023/11/12 01:01:49;;;;;;;5.95;2.60;;;205.00;2252.80;;;;;;5015850;28;20060;-77
2023/11/12 01:04:15;;;;;;;4.50;2.15;;;205.00;2252.80;;;;;;5032886;28;20108;-77
2023/11/12 01:06:41;;;;;;;4.80;1.67;;;205.00;2252.80;;;;;;5015979;28;20022;-77
2023/11/12 01:09:08;;;;;;;;;;;205.00;2252.80;;;;;;5028404;28;20130;-77
2023/11/12 01:11:34;;;;;;;5.10;1.92;;;205.00;2252.80;;;;;;5032087;28;19905;-77
2023/11/12 01:14:00;;;;;;;5.20;2.00;;;204.90;2252.80;;;;;;5015340;28;20034;-77
2023/11/12 01:16:26;;;;;;;4.50;2.00;;;204.90;2252.80;;;;;;5008334;28;20377;-78
2023/11/12 01:18:52;;;;;;;4.20;1.80;;;204.80;2252.80;;;;;;4996049;28;20025;-78
2023/11/12 01:21:17;;;;;;;;;;;204.80;2252.80;;;;;;5014174;28;20029;-80
2023/11/12 01:23:43;;;;;;;3.85;1.90;;;180.10;2252.80;;;;;;5008463;28;19906;-78
2023/11/12 01:26:09;;;;;;;6.03;1.90;;;180.10;2252.80;;;;;;4995693;28;20026;-78
2023/11/12 01:28:35;;;;;;;4.47;2.40;;;180.10;2252.80;;;;;;5000390;28;20480;-77
2023/11/12 01:31:02;;;;;;;3.20;1.70;;;180.10;2252.80;;;;;;4995871;28;20041;-78
2023/11/12 01:33:28;;;;;;;3.25;1.92;;;180.10;2252.80;;;;;;4995853;28;20026;-77
2023/11/12 01:35:54;;;;;;;;;;;180.10;2252.80;;;;;;5007659;28;20115;-78
2023/11/12 01:38:20;;;;;;;3.67;1.70;;;204.80;2252.80;;;;;;5000668;28;19914;-78
2023/11/12 01:40:46;;;;;;;6.13;2.15;;;180.10;2252.80;;;;;;5013243;28;20556;-78
2023/11/12 01:43:12;;;;;;;;;;;204.80;2252.80;;;;;;5000824;28;20041;-78
2023/11/12 01:45:38;;;;;;;3.60;2.10;;;180.10;2252.80;;;;;;4995310;28;19940;-78
2023/11/12 01:48:05;;;;;;;6.43;2.30;;;204.80;2252.80;;;;;;5013214;28;20026;-77
2023/11/12 01:50:30;;;;;;;3.78;2.10;;;204.80;2252.80;;;;;;5013118;28;20025;-77
2023/11/12 01:52:57;;;;;;;5.13;2.22;;;205.00;2252.80;;;;;;4995854;28;20026;-77
2023/11/12 01:55:25;;;;;;;4.60;2.22;;;204.90;2252.80;;;;;;5012825;28;20476;-77
2023/11/12 01:57:52;;;;;;;3.95;2.35;;;205.00;2252.80;;;;;;5012950;28;20068;-78
2023/11/12 02:00:19;;;;;;;9.55;2.50;;;204.90;2252.80;;;;;;5013121;28;20021;-78
2023/11/12 02:02:45;;;;;;;4.50;2.58;;;204.90;2252.80;;;;;;4995745;28;20030;-77
2023/11/12 02:05:11;;;;;;;4.85;2.60;;;204.80;2252.80;;;;;;5012993;28;20033;-78
2023/11/12 02:07:42;;;;;;;4.47;2.40;;;204.80;2252.80;;;;;;5002229;28;20030;-78
2023/11/12 02:10:09;;;;;;;4.93;2.30;;;180.10;2252.80;;;;;;5009367;28;20399;-77
2023/11/12 02:12:39;;;;;;;5.68;2.75;;;180.10;2252.80;;;;;;5012978;28;20018;-78
2023/11/12 02:15:05;;;;;;;6.43;3.03;;;204.80;2252.80;;;;;;5011775;28;20527;-77
2023/11/12 02:17:32;;;;;;;6.28;2.67;;;204.80;2252.80;;;;;;4995397;28;20128;-78
2023/11/12 02:20:08;;;;;;;4.85;2.47;;;204.80;2252.80;;;;;;5012906;28;20026;-78
2023/11/12 02:22:34;;;;;;;6.47;2.63;;;204.80;2252.80;;;;;;5011963;28;20034;-78
2023/11/12 02:25:04;;;;;;;5.68;2.55;;;204.80;2252.80;;;;;;4998175;28;20033;-77
2023/11/12 02:27:30;;;;;;;5.60;2.65;;;204.80;2252.80;;;;;;5013007;28;20391;-77
2023/11/12 02:29:56;;;;;;;5.15;2.00;;;204.80;2252.80;;;;;;5016744;28;20041;-77
2023/11/12 02:32:21;;;;;;;;;;;204.80;2252.80;;;;;;5026011;28;20368;-76
2023/11/12 02:34:48;;;;;;;5.93;2.00;;;204.80;2252.80;;;;;;5023738;28;20290;-77
2023/11/12 02:37:14;;;;;;;5.25;2.70;;;204.80;2252.80;;;;;;4999616;28;20484;-77
2023/11/12 02:39:42;;;;;;;5.95;3.08;;;204.90;2252.80;;;;;;5014579;28;20442;-78
2023/11/12 02:42:12;;;;;;;7.15;3.25;;;204.80;2252.80;;;;;;5016001;28;20074;-77
2023/11/12 02:44:38;;;;;;;6.00;2.55;;;204.90;2252.80;;;;;;5003993;28;20022;-77
2023/11/12 02:47:06;;;;;;;6.40;3.55;;;204.90;2252.80;;;;;;5008710;28;20037;-78
2023/11/12 02:50:05;;;;;;;8.50;2.75;;;204.90;2252.80;;;;;;4998846;28;20088;-78
2023/11/12 02:52:32;;;;;;;5.05;2.78;;;204.90;2252.80;;;;;;5000501;28;20068;-77
2023/11/12 02:54:59;;;;;;;5.03;2.50;;;204.90;2252.80;;;;;;5016039;28;20117;-77
2023/11/12 02:57:26;;;;;;;4.80;2.63;;;204.90;2252.80;;;;;;5016042;28;20480;-78
2023/11/12 02:59:53;;;;;;;5.32;2.40;;;205.00;2252.80;;;;;;5016199;28;20064;-78
2023/11/12 03:02:19;;;;;;;6.38;2.30;;;205.00;2252.80;;;;;;4998382;28;20390;-78
2023/11/12 03:04:46;;;;;;;6.75;3.03;;;205.00;2252.80;;;;;;4998487;28;20108;-78
2023/11/12 03:07:12;;;;;;;4.82;2.50;;;205.00;2252.80;;;;;;5014125;28;20029;-77
2023/11/12 03:09:37;;;;;;;;;;;205.00;2252.80;;;;;;4998697;28;20042;-78
2023/11/12 03:12:04;;;;;;;5.07;2.58;;;205.00;2252.80;;;;;;5014211;28;19906;-78
2023/11/12 03:14:33;;;;;;;4.28;2.10;;;205.00;2252.80;;;;;;5013789;28;20108;-77
2023/11/12 03:16:59;;;;;;;4.80;2.90;;;204.90;2252.80;;;;;;5012792;28;20136;-77
2023/11/12 03:19:25;;;;;;;7.10;2.67;;;205.00;2252.80;;;;;;5035635;28;20021;-78
2023/11/12 03:21:55;;;;;;;4.22;2.60;;;204.90;2252.80;;;;;;5022227;28;20040;-78
2023/11/12 03:24:21;;;;;;;4.50;2.42;;;204.90;2252.80;;;;;;5033778;28;20025;-78
2023/11/12 03:26:50;;;;;;;4.70;2.50;;;205.00;2252.80;;;;;;5035575;28;20531;-77
2023/11/12 03:29:17;;;;;;;5.18;2.65;;;204.90;2252.80;;;;;;5035234;28;20475;-77
2023/11/12 03:31:44;;;;;;;4.28;2.63;;;204.90;2252.80;;;;;;5034229;28;20037;-77
2023/11/12 03:34:10;;;;;;;7.38;3.15;;;204.90;2252.80;;;;;;5033394;28;20034;-77
2023/11/12 03:36:37;;;;;;;4.05;2.20;;;204.80;2252.80;;;;;;5034035;28;20049;-78
2023/11/12 03:39:02;;;;;;;3.95;2.22;;;204.80;2252.80;;;;;;5033249;28;20533;-77
2023/11/12 03:41:28;;;;;;;4.53;2.67;;;204.80;2252.80;;;;;;5033648;28;20017;-77
2023/11/12 03:43:54;;;;;;;;;;;204.80;2252.80;;;;;;5034103;28;20495;-78
2023/11/12 03:46:19;;;;;;;5.13;2.42;;;204.80;2252.80;;;;;;5033996;28;19964;-78
2023/11/12 03:48:45;;;;;;;6.07;2.85;;;204.80;2252.80;;;;;;5034595;28;20461;-77
2023/11/12 03:51:11;;;;;;;;;;;204.90;2252.80;;;;;;5033516;28;20380;-78
2023/11/12 03:53:37;;;;;;;5.90;2.72;;;204.90;2252.80;;;;;;5033919;28;19915;-77
2023/11/12 03:56:03;;;;;;;5.45;2.83;;;204.90;2252.80;;;;;;5033534;28;20033;-77
2023/11/12 03:58:30;;;;;;;4.75;3.05;;;204.90;2252.80;;;;;;5032801;28;20029;-77
2023/11/12 04:00:57;;;;;;;5.70;2.90;;;204.90;2252.80;;;;;;5033654;28;20049;-78
2023/11/12 04:03:22;;;;;;;7.38;3.35;;;204.90;2252.80;;;;;;5033452;28;20025;-78
2023/11/12 04:05:48;;;;;;;5.43;2.92;;;205.00;2252.80;;;;;;5033357;28;20025;-78
2023/11/12 04:08:14;;;;;;;;;;;205.10;2252.80;;;;;;5033421;28;20055;-78
2023/11/12 04:10:40;;;;;;;5.07;2.58;;;205.00;2252.80;;;;;;5033002;28;20382;-77
2023/11/12 04:13:06;;;;;;;5.18;2.63;;;205.00;2252.80;;;;;;5033131;28;20095;-78
2023/11/12 04:15:32;;;;;;;5.43;2.42;;;204.90;2252.80;;;;;;5033129;28;20040;-78
2023/11/12 04:17:57;;;;;;;3.63;2.10;;;204.90;2252.80;;;;;;5032826;28;20113;-78
2023/11/12 04:20:30;;;;;;;;;;;204.80;2252.80;;;;;;5033640;28;20375;-78
2023/11/12 04:22:57;;;;;;;4.28;2.63;;;204.80;2252.80;;;;;;5032990;28;19912;-77
2023/11/12 04:25:22;;;;;;;4.03;2.28;;;180.10;2252.80;;;;;;5033068;28;20489;-78
2023/11/12 04:27:49;;;;;;;;;;;180.00;2252.80;;;;;;5033215;28;20021;-78
2023/11/12 04:30:15;;;;;;;5.15;3.05;;;180.00;2252.80;;;;;;5033029;28;20317;-78
2023/11/12 04:32:41;;;;;;;6.25;3.08;;;179.90;2252.80;;;;;;5034144;28;20444;-78
2023/11/12 04:35:07;;;;;;;;;;;179.60;2252.80;;;;;;5033325;28;20124;-77
2023/11/12 04:37:33;;;;;;;4.95;2.45;;;179.30;2252.80;;;;;;5020915;28;20382;-77
2023/11/12 04:40:03;;;;;;;;;;;179.50;2252.80;;;;;;5033150;28;20025;-78
2023/11/12 04:42:29;;;;;;;5.63;2.45;;;179.60;2252.80;;;;;;5032305;28;19909;-78
2023/11/12 04:44:55;;;;;;;4.32;2.58;;;179.50;2252.80;;;;;;5033902;28;20022;-77
2023/11/12 04:47:21;;;;;;;;;;;179.50;2252.80;;;;;;5032878;28;20399;-77
2023/11/12 04:49:46;;;;;;;4.50;2.25;;;179.40;2252.80;;;;;;5032572;28;19913;-78
2023/11/12 04:52:12;;;;;;;;;;;179.40;2252.80;;;;;;5032820;28;20017;-78
2023/11/12 04:54:38;;;;;;;4.43;2.50;;;179.40;2252.80;;;;;;5032700;28;19909;-78
2023/11/12 04:57:04;;;;;;;;;;;179.30;2252.80;;;;;;5032514;28;20041;-77
2023/11/12 04:59:30;;;;;;;5.40;2.58;;;179.40;2252.80;;;;;;5031866;28;19909;-78
2023/11/12 05:01:55;;;;;;;;;;;179.30;2252.80;;;;;;5033987;28;20088;-78
2023/11/12 05:04:22;;;;;;;6.43;2.73;;;179.30;2252.80;;;;;;5033753;28;19940;-78
2023/11/12 05:06:48;;;;;;;5.55;3.47;;;179.40;2252.80;;;;;;5032072;28;20025;-78
2023/11/12 05:09:13;;;;;;;;;;;179.30;2252.80;;;;;;5032261;28;20414;-78
2023/11/12 05:11:39;;;;;;;6.18;2.20;;;179.20;2252.80;;;;;;5032079;28;20001;-78
2023/11/12 05:14:05;;;;;;;;;;;154.50;2252.80;;;;;;5032282;28;20476;-78
2023/11/12 05:16:30;;;;;;;7.78;2.65;;;154.50;2252.80;;;;;;5031673;28;20442;-78
2023/11/12 05:18:56;;;;;;;;;;;154.40;2252.80;;;;;;5032354;28;20099;-78
2023/11/12 05:21:22;;;;;;;7.50;3.42;;;154.30;2252.80;;;;;;5032052;28;19940;-77
2023/11/12 05:23:47;;;;;;;;;;;154.20;2252.80;;;;;;5025670;28;20048;-77
2023/11/12 05:26:14;;;;;;;7.57;4.00;;;154.20;2252.80;;;;;;5031383;28;19909;-77
2023/11/12 05:28:40;;;;;;;5.20;3.05;;;154.20;2252.80;;;;;;5029692;28;20041;-77
2023/11/12 05:31:07;;;;;;;10.15;3.72;;;154.10;2252.80;;;;;;5043845;28;20030;-77
2023/11/12 05:33:33;;;;;;;7.00;3.22;;;154.10;2252.80;;;;;;5042412;28;20064;-77
2023/11/12 05:35:59;;;;;;;7.50;3.55;;;154.20;2252.80;;;;;;5029631;28;20029;-77
2023/11/12 05:38:25;;;;;;;;;;;154.20;2252.80;;;;;;5042480;28;20164;-77
2023/11/12 05:40:51;;;;;;;8.80;5.03;;;154.10;2252.80;;;;;;5045355;28;19905;-77
2023/11/12 05:43:17;;;;;;;6.45;3.78;;;154.10;2252.80;;;;;;5031276;28;20312;-76
2023/11/12 05:45:43;;;;;;;;;;;154.10;2252.80;;;;;;5027862;28;20132;-75
2023/11/12 05:48:10;;;;;;;7.18;3.42;;;154.20;2252.80;;;;;;5024322;28;20008;-77
2023/11/12 05:50:36;;;;;;;7.05;3.00;;;154.20;2252.80;;;;;;5029998;28;20503;-76
2023/11/12 05:53:02;;;;;;;7.32;3.40;;;154.20;2252.80;;;;;;5022005;28;20024;-76
2023/11/12 05:55:28;;;;;;;;;;;154.40;2252.80;;;;;;5027472;28;20116;-77
2023/11/12 05:57:54;;;;;;;6.97;3.13;;;154.50;2252.80;;;;;;5027297;28;20014;-76
2023/11/12 06:00:19;;;;;;;;;;;154.40;2252.80;;;;;;5026219;28;20026;-76
2023/11/12 06:02:45;;;;;;;5.32;2.58;;;154.50;2252.80;;;;;;5023899;28;19905;-77
2023/11/12 06:05:11;;;;;;;;;;;179.20;2252.80;;;;;;5030381;28;20050;-77
2023/11/12 06:07:37;;;;;;;7.07;2.85;;;179.20;2252.80;;;;;;5021349;28;20345;-76
2023/11/12 06:10:03;;;;;;;;;;;179.20;2252.80;;;;;;5030966;28;20390;-76
2023/11/12 06:12:30;;;;;;;6.32;2.83;;;179.20;2252.80;;;;;;5028684;28;19919;-76
2023/11/12 06:14:56;;;;;;;9.45;3.08;;;179.20;2252.80;;;;;;5033018;28;20121;-75
2023/11/12 06:17:21;;;;;;;;;;;179.30;2252.80;;;;;;5028665;28;20049;-76
2023/11/12 06:19:47;;;;;;;4.50;2.20;;;179.30;2252.80;;;;;;5031659;28;19914;-76
2023/11/12 06:22:14;;;;;;;5.18;3.13;;;179.30;2252.80;;;;;;5031552;28;20375;-76
2023/11/12 06:24:40;;;;;;;5.88;3.38;;;179.30;2252.80;;;;;;5031004;28;20042;-75
2023/11/12 06:27:06;;;;;;;;;;;179.40;2252.80;;;;;;5034280;28;20026;-76
2023/11/12 06:29:31;;;;;;;8.27;3.35;;;179.40;2252.80;;;;;;5040242;28;19917;-80
2023/11/12 06:31:57;;;;;;;7.47;3.50;;;179.40;2252.80;;;;;;5035773;28;20029;-81
2023/11/12 06:34:22;;;;;;;;;;;179.50;2252.80;;;;;;5036643;28;20037;-81
2023/11/12 06:36:49;;;;;;;5.55;3.35;;;179.60;2252.80;;;;;;5047685;28;19987;-80
2023/11/12 06:39:15;;;;;;;5.90;3.58;;;179.60;2252.80;;;;;;5031902;28;20072;-80
2023/11/12 06:41:41;;;;;;;;;;;179.70;2252.80;;;;;;5035090;28;20029;-80
2023/11/12 06:44:07;;;;;;;7.70;3.70;;;180.00;2252.80;;;;;;5025872;28;19910;-81
2023/11/12 06:46:32;;;;;;;;;;;180.10;2252.80;;;;;;5032872;28;20083;-78
2023/11/12 06:48:58;;;;;;;5.28;3.17;;;204.90;2252.80;;;;;;5044706;28;19979;-78
2023/11/12 06:51:24;;;;;;;;;;;205.00;2252.80;;;;;;5024455;28;20033;-79
2023/11/12 06:53:50;;;;;;;5.90;3.40;;;205.40;2252.80;;;;;;5044507;28;19909;-79
2023/11/12 06:56:16;;;;;;;9.93;4.03;;;205.10;2252.80;;;;;;5025252;28;20044;-80
2023/11/12 06:58:42;;;;;;;6.20;3.35;;;205.10;2252.80;;;;;;5034359;28;20030;-83
2023/11/12 07:01:08;;;;;;;6.32;3.22;;;205.20;2252.80;;;;;;5032337;28;20100;-79
2023/11/12 07:03:34;;;;;;;6.22;3.40;;;205.20;2252.80;;;;;;5029172;28;20480;-78
2023/11/12 07:05:59;;;;;;;;;;;205.40;2252.80;;;;;;5031755;28;20029;-83
2023/11/12 07:08:25;;;;;;;5.22;2.97;;;205.50;2252.80;;;;;;5042353;28;19914;-80
2023/11/12 07:10:54;;;;;;;6.80;3.42;;;205.50;2252.80;;;;;;5030806;28;20503;-80
2023/11/12 07:13:20;;;;;;;6.47;2.83;;;205.70;2252.80;;;;;;5031616;28;20116;-81
2023/11/12 07:15:45;;;;;;;5.20;2.88;;;230.40;2252.80;;;;;;5025553;28;20156;-82
2023/11/12 07:18:11;;;;;;;5.20;3.38;;;230.60;2252.80;;;;;;5034165;28;20073;-81
2023/11/12 07:20:38;;;;;;;6.10;3.85;;;230.70;2252.80;;;;;;5031901;28;20025;-81
2023/11/12 07:23:04;;;;;;;7.05;3.80;;;230.90;2252.80;;;;;;5034481;28;20057;-81
2023/11/12 07:25:30;;;;;;;7.80;3.97;;;231.00;2252.80;;;;;;5024512;28;20055;-81
2023/11/12 07:27:55;;;;;;;14.68;7.88;;;231.10;2252.80;;;;;;5028392;28;20040;-83
2023/11/12 07:30:21;;;;;;;;;;;231.30;2252.80;;;;;;5031642;28;20031;-81
2023/11/12 07:32:47;;;;;;;9.13;3.95;;;231.30;2252.80;;;;;;5045511;28;19913;-80
2023/11/12 07:35:13;;;;;;;13.02;6.68;;;256.00;2252.80;;;;;;5037849;28;20029;-80
2023/11/12 07:37:41;;;;;;;11.98;6.20;;;256.10;2252.80;;;;;;5028498;28;20033;-80
2023/11/12 07:40:11;;;;;;;10.55;4.80;;;256.20;2252.80;;;;;;5036531;28;20356;-84
2023/11/12 07:42:40;;;;;;;7.00;4.47;;;256.20;2252.80;;;;;;5034411;28;20025;-84
2023/11/12 07:45:10;;;;;;;8.68;3.75;;;256.20;2252.80;;;;;;5037849;28;20036;-85
2023/11/12 07:47:38;;;;;;;6.03;3.08;;;256.20;2252.80;;;;;;5029493;28;20033;-82
2023/11/12 07:50:05;;;;;;;6.57;3.30;;;256.70;2252.80;;;;;;5034363;28;20039;-83
2023/11/12 07:52:32;;;;;;;5.78;3.25;;;256.20;2252.80;;;;;;5033252;28;20021;-80
2023/11/12 07:54:58;;;;;;;4.35;2.33;;;256.20;2252.80;;;;;;5028145;28;20402;-79
2023/11/12 07:57:24;;;;;;;6.50;3.03;;;256.20;2252.80;;;;;;5027943;28;20037;-80
2023/11/12 07:59:50;;;;;;;6.32;2.83;;;256.30;2252.80;;;;;;5030603;28;20048;-79
2023/11/12 08:02:16;;;;;;;6.28;3.83;;;256.20;2252.80;;;;;;5023222;28;20472;-79
2023/11/12 08:04:42;;;;;;;6.38;3.30;;;256.20;2252.80;;;;;;5036576;28;20021;-79
2023/11/12 08:07:08;;;;;;;7.15;2.95;;;256.30;2252.80;;;;;;5033866;28;20099;-79
2023/11/12 08:09:36;;;;;;;9.63;3.50;;;256.30;2252.80;;;;;;5029569;28;20045;-80
2023/11/12 08:12:03;;;;;;;8.85;4.15;;;256.30;2252.80;;;;;;5029532;28;20025;-82
2023/11/12 08:14:29;;;;;;;10.15;6.03;;;256.30;2252.80;;;;;;5045375;28;20018;-80
2023/11/12 08:16:55;;;;;;;10.35;5.88;;;256.50;2252.80;;;;;;5040824;28;20103;-78
2023/11/12 08:19:21;;;;;;;6.82;4.20;;;256.60;2252.80;;;;;;5028557;28;20037;-79
2023/11/12 08:21:47;;;;;;;8.32;3.60;;;256.80;2252.80;;;;;;5047306;28;20021;-81
2023/11/12 08:24:12;;;;;;;8.60;3.55;;;256.80;2252.80;;;;;;5048289;28;20544;-79
2023/11/12 08:26:41;;;;;;;5.70;3.53;;;256.70;2252.80;;;;;;5042485;28;20033;-82
2023/11/12 08:29:07;;;;;;;7.65;2.90;;;256.70;2252.80;;;;;;5042908;28;20125;-83
2023/11/12 08:31:36;;;;;;;6.95;2.75;;;256.80;2252.80;;;;;;5029995;28;20478;-83
2023/11/12 08:34:05;;;;;;;5.22;2.53;;;256.70;2252.80;;;;;;5041280;28;20115;-81
2023/11/12 08:36:30;;;;;;;5.30;2.33;;;256.80;2252.80;;;;;;5036745;28;20032;-84
2023/11/12 08:38:56;;;;;;;8.77;3.17;;;256.80;2252.80;;;;;;5029854;28;20033;-84
2023/11/12 08:41:22;;;;;;;5.82;2.58;;;281.60;2278.40;;;;;;5041111;28;20045;-80
2023/11/12 08:43:49;;;;;;;4.07;2.30;;;281.80;2278.40;;;;;;5031293;28;20392;-86
2023/11/12 08:46:16;;;;;;;5.85;2.53;;;281.90;2278.40;;;;;;5028720;28;20041;-84
2023/11/12 08:48:45;;;;;;;4.75;2.72;;;282.00;2278.40;;;;;;5026762;28;20087;-81
2023/11/12 08:51:11;;;;;;;3.47;2.25;;;282.00;2278.40;;;;;;5034299;28;20021;-80
2023/11/12 08:53:39;;;;;;;2.83;1.50;;;282.20;2278.40;;;;;;5034535;28;20471;-79
2023/11/12 08:56:06;;;;;;;4.25;1.48;;;282.20;2278.40;;;;;;5034142;28;20040;-82
2023/11/12 08:58:32;;;;;;;3.42;1.30;;;282.30;2278.40;;;;;;5028986;28;20028;-81
2023/11/12 09:00:58;;;;;;;3.58;1.73;;;282.40;2278.40;;;;;;5047304;28;20108;-82
2023/11/12 09:03:23;;;;;;;5.40;1.33;;;282.50;2278.40;;;;;;5043893;28;20026;-81
2023/11/12 09:05:49;;;;;;;4.32;1.50;;;307.20;2304.00;;;;;;5028109;28;20482;-81
2023/11/12 09:08:16;;;;;;;3.45;1.90;;;307.50;2304.00;;;;;;5043826;28;20043;-80
2023/11/12 09:10:42;;;;;;;3.42;1.58;;;307.60;2304.00;;;;;;5027230;28;20030;-80
2023/11/12 09:13:09;;;;;;;3.40;1.70;;;307.80;2304.00;;;;;;5051355;28;20047;-80
2023/11/12 09:15:36;;;;;;;2.63;1.75;;;307.90;2304.00;;;;;;5041503;28;20025;-79
2023/11/12 09:18:02;;;;;;;2.13;1.30;;;308.10;2304.00;;;;;;5036226;28;20040;-79
2023/11/12 09:20:30;;;;;;;5.43;2.08;;;332.80;2099.20;;;;;;5030421;28;20053;-83
2023/11/12 09:22:55;;;;;;;4.22;2.22;;;332.90;2227.20;;;;;;5051844;28;20021;-82
2023/11/12 09:25:21;;;;;;;2.10;1.10;;;333.20;2099.20;;;;;;5043839;28;20464;-85
2023/11/12 09:27:47;;;;;;;2.00;1.20;;;333.40;2048.00;;;;;;5027326;28;20040;-82
2023/11/12 09:30:13;;;;;;;4.10;1.27;;;333.60;1996.80;;;;;;5031727;28;20032;-82
2023/11/12 09:32:41;;;;;;;2.75;1.48;;;358.50;1996.80;;;;;;5035216;28;20399;-83
2023/11/12 09:35:10;;;;;;;5.80;1.98;;;358.70;2022.40;;;;;;5034545;28;20095;-83
2023/11/12 09:37:37;;;;;;;2.63;1.23;;;359.10;1996.80;;;;;;5032144;28;20033;-77
2023/11/12 09:40:07;;;;;;;4.85;1.67;;;359.30;1792.00;;;;;;5031594;28;20029;-85
2023/11/12 09:42:37;;;;;;;6.10;1.40;;;384.20;1792.00;;;;;;5035589;28;20036;-88
2023/11/12 09:45:05;;;;;;;1.73;0.93;;;384.30;1638.40;;;;;;5029540;28;20031;-80
2023/11/12 09:47:53;;;;;;;3.58;1.23;;;384.80;1638.40;;;;;;5027901;28;20033;-81
2023/11/12 09:50:22;;;;;;;4.93;1.58;;;409.70;1638.40;;;;;;5028521;28;20045;-81
2023/11/12 09:52:49;;;;;;;3.30;1.50;;;410.00;1612.80;;;;;;5031594;28;20543;-85
2023/11/12 09:55:16;;;;;;;7.00;2.45;;;410.30;1587.20;;;;;;5046911;28;20025;-85
2023/11/12 09:57:43;;;;;;;4.30;1.83;;;435.20;1612.80;;;;;;5051541;28;20028;-84
2023/11/12 10:00:12;;;;;;;4.63;1.73;;;410.50;1612.80;;;;;;5048219;28;20121;-84
2023/11/12 10:02:41;;;;;;;5.15;2.60;;;435.30;1587.20;;;;;;5043471;28;20036;-84
2023/11/12 10:05:10;;;;;;;4.72;2.10;;;435.50;1536.00;;;;;;5034583;28;20025;-83
2023/11/12 10:07:41;;;;;;;5.95;1.30;;;435.70;1510.40;;;;;;5051561;28;20497;-84
2023/11/12 10:10:33;;;;;;;2.53;1.40;;;435.90;1433.60;;;;;;5029611;28;20038;-86
2023/11/12 10:13:04;;;;;;;5.35;2.20;;;436.10;1484.80;;;;;;5026163;28;20049;-84
2023/11/12 10:15:33;;;;;;;2.47;1.20;;;460.80;1536.00;;;;;;5020186;28;20151;-79
2023/11/12 10:18:00;;;;;;;2.78;1.58;;;460.90;1459.20;;;;;;5049733;28;20045;-84
2023/11/12 10:20:28;;;;;;;2.38;1.33;;;460.90;1510.40;;;;;;5027472;28;20063;-85
2023/11/12 10:22:54;;;;;;;3.00;1.50;;;461.00;1510.40;;;;;;5035388;28;20021;-83
2023/11/12 10:25:36;;;;;;;4.07;2.20;;;461.20;1459.20;;;;;;5040664;28;20036;-87
2023/11/12 10:28:03;;;;;;;5.13;1.83;;;461.20;1433.60;;;;;;5047109;28;20059;-86
2023/11/12 10:30:28;;;;;;;2.92;1.45;;;461.20;1459.20;;;;;;5047070;28;20071;-83
2023/11/12 10:32:58;;;;;;;3.85;1.90;;;461.30;1433.60;;;;;;5034056;28;20064;-80
2023/11/12 10:35:31;;;;;;;5.22;2.20;;;461.40;1459.20;;;;;;5033741;28;20111;-80
2023/11/12 10:38:02;;;;;;;4.18;1.90;;;461.40;1459.20;;;;;;5026233;28;20022;-82
2023/11/12 10:40:28;;;;;;;3.15;1.60;;;461.20;1433.60;;;;;;5029874;28;20187;-82
2023/11/12 10:43:05;;;;;;;4.82;1.80;;;461.40;1408.00;;;;;;5027306;28;20017;-81
2023/11/12 10:45:35;;;;;;;6.15;2.50;;;461.60;1408.00;;;;;;5034302;28;20098;-80
2023/11/12 10:48:04;;;;;;;7.72;2.85;;;461.70;1433.60;;;;;;5030465;28;20034;-82
2023/11/12 10:50:31;;;;;;;6.72;2.90;;;461.60;1459.20;;;;;;5037796;28;20038;-85
2023/11/12 10:52:57;;;;;;;5.25;2.97;;;461.40;1484.80;;;;;;5049058;28;20021;-81
2023/11/12 10:55:25;;;;;;;3.92;2.05;;;461.50;1484.80;;;;;;5033467;28;20024;-82
2023/11/12 10:57:52;;;;;;;3.85;1.70;;;461.60;1433.60;;;;;;5037597;28;20033;-81
2023/11/12 11:00:24;;;;;;;2.92;1.90;;;460.90;1382.40;;;;;;5035280;28;20031;-81
2023/11/12 11:02:50;;;;;;;5.85;2.17;;;461.50;1433.60;;;;;;5030529;28;20095;-81
2023/11/12 11:05:16;;;;;;;3.30;1.58;;;461.50;1459.20;;;;;;5055336;28;20021;-80
2023/11/12 11:07:43;;;;;;;4.07;2.67;;;461.70;1382.40;;;;;;5050696;28;20033;-81
2023/11/12 11:10:11;;;;;;;4.00;2.30;;;461.70;1408.00;;;;;;5034502;28;20076;-81
2023/11/12 11:12:37;;;;;;;3.53;1.80;;;461.70;1433.60;;;;;;5050966;28;20457;-82
2023/11/12 11:15:41;;;;;;;3.28;1.77;;;461.70;1433.60;;;;;;5029433;28;20471;-82
2023/11/12 11:18:07;;;;;;;3.13;1.70;;;461.50;1433.60;;;;;;5002738;28;20046;-83
2023/11/12 11:23:42;;;;;;;4.43;2.05;;;461.60;1459.20;;;;;;5013601;28;20050;-83
2023/11/12 11:26:27;;;;;;;6.55;2.88;;;461.50;1408.00;;;;;;5012826;28;20095;-83
2023/11/12 11:29:05;;;;;;;5.13;2.80;;;461.40;1459.20;;;;;;5012327;28;20038;-83
2023/11/12 11:31:35;;;;;;;3.25;1.67;;;461.40;1408.00;;;;;;5007125;28;20089;-81
2023/11/12 11:34:03;;;;;;;4.68;2.15;;;461.50;1433.60;;;;;;5014041;28;20041;-81
2023/11/12 11:36:32;;;;;;;2.65;1.48;;;461.40;1433.60;;;;;;5013300;28;20184;-82
2023/11/12 11:39:08;;;;;;;3.47;2.00;;;461.30;1382.40;;;;;;5010824;28;20310;-84
2023/11/12 11:41:35;;;;;;;3.42;1.80;;;461.20;1408.00;;;;;;5005715;28;20025;-82
2023/11/12 11:44:37;;;;;;;3.70;2.20;;;461.20;1433.60;;;;;;5011938;28;20021;-83
2023/11/12 11:47:12;;;;;;;6.38;1.80;;;461.10;1459.20;;;;;;5007139;28;20034;-85
2023/11/12 11:49:39;;;;;;;2.67;1.30;;;460.80;1484.80;;;;;;5009503;28;20061;-84
2023/11/12 11:52:07;;;;;;;1.98;1.45;;;435.90;1459.20;;;;;;5019735;28;20024;-81
2023/11/12 11:54:34;;;;;;;4.97;1.60;;;435.90;1459.20;;;;;;5013829;28;20034;-80
2023/11/12 11:57:01;;;;;;;3.85;1.63;;;435.90;1408.00;;;;;;5004272;28;20606;-83
2023/11/12 11:59:30;;;;;;;3.17;1.83;;;435.90;1433.60;;;;;;5006742;28;20392;-79
2023/11/12 12:02:00;;;;;;;2.70;1.35;;;435.90;1459.20;;;;;;5006305;28;20037;-80
2023/11/12 12:04:26;;;;;;;3.97;1.48;;;435.80;1382.40;;;;;;5010078;28;20499;-84
2023/11/12 12:06:52;;;;;;;5.32;2.03;;;435.70;1382.40;;;;;;5006179;28;20030;-85
2023/11/12 12:09:18;;;;;;;2.70;1.50;;;435.70;1408.00;;;;;;5003465;28;20056;-83
2023/11/12 12:11:46;;;;;;;2.38;1.40;;;435.60;1408.00;;;;;;5006250;28;20065;-84
2023/11/12 12:14:14;;;;;;;5.05;1.40;;;435.50;1408.00;;;;;;5013072;28;20037;-82
2023/11/12 12:16:42;;;;;;;2.40;1.40;;;435.50;1433.60;;;;;;5019720;28;20076;-82
2023/11/12 12:19:16;;;;;;;1.92;1.42;;;435.30;1433.60;;;;;;5033178;28;20070;-83
2023/11/12 12:21:52;;;;;;;6.15;2.42;;;435.20;1459.20;;;;;;5039152;28;20022;-85
2023/11/12 12:24:21;;;;;;;2.88;1.25;;;410.30;1459.20;;;;;;5036792;28;20026;-84
2023/11/12 12:26:47;;;;;;;2.50;1.17;;;410.30;1433.60;;;;;;5027773;28;20026;-84
2023/11/12 12:29:20;;;;;;;4.70;1.55;;;410.00;1408.00;;;;;;5033436;28;20128;-83